Time;durP1;ratioP1;P1;durP2;ratioP2;P2;SDS_P1;SDS_P2;PMS_P1;PMS_P2;Temp;Humidity;BMP_temperature;BMP_pressure;BME280_temperature;BME280_humidity;BME280_pressure;Samples;Min_cycle;Max_cycle;Signal;HPM_P1;HPM_P2
2022/12/31 00:01:42;;;;;;;1.33;1.00;;;14.60;99.90;;;;;;5092952;28;20211;-85
2022/12/31 00:04:08;;;;;;;1.67;0.90;;;14.60;99.90;;;;;;5068691;28;20678;-85
2022/12/31 00:06:35;;;;;;;1.97;1.00;;;14.60;99.90;;;;;;5085927;28;20179;-84
2022/12/31 00:09:04;;;;;;;1.60;1.20;;;14.70;99.90;;;;;;5087027;28;20191;-83
2022/12/31 00:11:31;;;;;;;2.93;2.20;;;14.50;99.90;;;;;;5102784;28;20174;-83
2022/12/31 00:13:57;;;;;;;2.60;1.47;;;14.60;99.90;;;;;;5100011;28;20274;-83
2022/12/31 00:16:31;;;;;;;2.00;1.50;;;14.50;99.90;;;;;;5099166;28;20194;-86
2022/12/31 00:19:03;;;;;;;3.80;1.40;;;14.60;99.90;;;;;;5109941;28;20704;-87
2022/12/31 00:21:33;;;;;;;3.10;2.10;;;14.60;99.90;;;;;;5091336;28;20172;-87
2022/12/31 00:24:01;;;;;;;2.23;1.17;;;14.60;99.90;;;;;;5087197;28;20229;-87
2022/12/31 00:26:31;;;;;;;1.17;0.83;;;14.60;99.90;;;;;;5085384;28;20176;-87
2022/12/31 00:28:59;;;;;;;2.33;1.00;;;14.70;99.90;;;;;;5086296;28;20217;-88
2022/12/31 00:31:30;;;;;;;1.43;0.80;;;14.70;99.90;;;;;;5069620;28;20187;-87
2022/12/31 00:33:57;;;;;;;1.43;0.80;;;14.70;99.90;;;;;;5084323;28;20255;-86
2022/12/31 00:36:25;;;;;;;0.70;0.57;;;14.80;99.90;;;;;;5084733;28;20183;-86
2022/12/31 00:38:53;;;;;;;0.70;0.60;;;15.00;99.90;;;;;;5085482;28;20182;-89
2022/12/31 00:41:21;;;;;;;1.20;0.70;;;14.90;99.90;;;;;;5087246;28;20207;-88
2022/12/31 00:43:56;;;;;;;1.13;0.50;;;15.00;99.90;;;;;;5088741;28;20207;-86
2022/12/31 00:46:23;;;;;;;0.60;0.40;;;15.10;99.90;;;;;;5101555;28;20167;-84
2022/12/31 00:48:49;;;;;;;1.20;0.40;;;15.20;99.90;;;;;;5118688;28;20178;-85
2022/12/31 00:51:20;;;;;;;1.97;0.70;;;15.30;99.90;;;;;;5094251;28;20203;-87
2022/12/31 00:53:46;;;;;;;0.50;0.50;;;15.30;99.90;;;;;;5088581;28;20180;-87
2022/12/31 00:56:19;;;;;;;0.60;0.40;;;15.50;99.90;;;;;;5089652;28;20228;-87
2022/12/31 00:58:47;;;;;;;1.23;0.40;;;15.60;99.90;;;;;;5084850;28;20236;-86
2022/12/31 01:01:33;;;;;;;1.17;0.50;;;15.80;99.90;;;;;;5067222;28;20184;-86
2022/12/31 01:04:06;;;;;;;0.67;0.30;;;15.70;99.90;;;;;;5086025;28;20240;-89
2022/12/31 01:06:32;;;;;;;0.77;0.40;;;15.90;99.90;;;;;;5084835;28;20182;-83
2022/12/31 01:08:58;;;;;;;0.53;0.37;;;16.00;99.90;;;;;;5079921;28;20175;-85
2022/12/31 01:11:28;;;;;;;0.47;0.30;;;16.00;99.90;;;;;;5082612;28;20236;-84
2022/12/31 01:14:00;;;;;;;0.63;0.43;;;16.00;99.90;;;;;;5086151;28;20183;-82
2022/12/31 01:16:32;;;;;;;0.83;0.40;;;15.90;99.90;;;;;;5087327;28;20181;-82
2022/12/31 01:19:00;;;;;;;0.67;0.40;;;15.90;99.90;;;;;;5089800;28;20185;-83
2022/12/31 01:21:29;;;;;;;0.57;0.50;;;16.00;99.90;;;;;;5081117;28;20204;-85
2022/12/31 01:23:54;;;;;;;0.63;0.53;;;16.00;99.90;;;;;;5080789;28;20212;-83
2022/12/31 01:26:20;;;;;;;1.77;0.40;;;16.10;99.90;;;;;;5097294;28;20191;-83
2022/12/31 01:28:46;;;;;;;0.63;0.37;;;16.10;99.90;;;;;;5099041;28;20670;-82
2022/12/31 01:31:16;;;;;;;0.43;0.30;;;16.00;99.90;;;;;;5080277;28;20179;-85
2022/12/31 01:33:42;;;;;;;0.93;0.50;;;15.50;99.90;;;;;;5081244;28;20187;-84
2022/12/31 01:36:15;;;;;;;2.13;0.60;;;15.20;99.90;;;;;;5100967;28;20203;-82
2022/12/31 01:38:41;;;;;;;2.10;0.67;;;15.20;99.90;;;;;;5080990;28;20263;-82
2022/12/31 01:41:13;;;;;;;0.73;0.37;;;15.00;99.90;;;;;;5084926;28;20195;-83
2022/12/31 01:43:54;;;;;;;1.77;0.40;;;14.90;99.90;;;;;;5103572;28;20234;-85
2022/12/31 01:46:27;;;;;;;0.73;0.30;;;15.00;99.90;;;;;;5083628;28;20165;-82
2022/12/31 01:48:57;;;;;;;2.13;0.50;;;15.00;99.90;;;;;;5082921;28;20658;-84
2022/12/31 01:51:27;;;;;;;1.23;0.50;;;15.30;99.90;;;;;;5086186;28;20294;-82
2022/12/31 01:53:53;;;;;;;0.70;0.33;;;15.20;99.90;;;;;;5083388;28;20635;-83
2022/12/31 01:56:23;;;;;;;0.40;0.40;;;15.10;99.90;;;;;;5082885;28;20183;-82
2022/12/31 01:58:56;;;;;;;0.87;0.30;;;15.00;99.90;;;;;;5085338;28;20183;-83
2022/12/31 02:01:34;;;;;;;0.83;0.40;;;15.00;99.90;;;;;;5086320;28;20187;-86
2022/12/31 02:04:09;;;;;;;1.67;0.50;;;15.20;99.90;;;;;;5094547;28;20219;-87
2022/12/31 02:06:59;;;;;;;1.93;0.50;;;15.40;99.90;;;;;;5094512;28;20238;-84
2022/12/31 02:09:25;;;;;;;0.80;0.50;;;15.60;99.90;;;;;;5098333;28;20188;-89
2022/12/31 02:11:52;;;;;;;1.97;0.40;;;15.60;99.90;;;;;;5097122;28;20194;-86
2022/12/31 02:14:23;;;;;;;0.77;0.20;;;15.70;99.90;;;;;;5094638;28;20191;-85
2022/12/31 02:17:23;;;;;;;0.67;0.40;;;15.70;99.90;;;;;;5105341;28;20165;-89
2022/12/31 02:20:21;;;;;;;1.07;0.50;;;15.70;99.90;;;;;;5106927;28;20221;-84
2022/12/31 02:22:52;;;;;;;1.83;0.40;;;15.70;99.90;;;;;;5096539;28;20258;-85
2022/12/31 02:25:43;;;;;;;1.40;0.40;;;15.70;99.90;;;;;;5081826;28;20188;-87
2022/12/31 02:28:40;;;;;;;2.20;0.53;;;15.60;99.90;;;;;;5088456;28;20203;-86
2022/12/31 02:31:28;;;;;;;2.30;1.17;;;15.60;99.90;;;;;;5086978;28;20177;-86
2022/12/31 02:33:57;;;;;;;2.93;0.67;;;15.50;99.90;;;;;;5061657;28;20188;-86
2022/12/31 02:36:28;;;;;;;2.53;0.70;;;15.50;99.90;;;;;;5061736;28;20176;-87
2022/12/31 02:39:13;;;;;;;2.80;0.63;;;15.50;99.90;;;;;;5078810;28;20666;-86
2022/12/31 02:41:51;;;;;;;3.37;0.90;;;15.60;99.90;;;;;;5077606;28;20197;-86
2022/12/31 02:44:29;;;;;;;1.23;0.80;;;15.60;99.90;;;;;;5062445;28;20236;-82
2022/12/31 02:47:06;;;;;;;2.83;0.90;;;15.80;99.90;;;;;;5063086;28;20180;-83
2022/12/31 02:49:56;;;;;;;2.73;0.97;;;15.70;99.90;;;;;;5079430;28;20191;-83
2022/12/31 02:52:45;;;;;;;3.03;0.73;;;15.70;99.90;;;;;;5078331;28;20189;-84
2022/12/31 02:55:29;;;;;;;3.27;1.00;;;15.70;99.90;;;;;;5060025;28;20173;-86
2022/12/31 02:58:06;;;;;;;2.77;0.70;;;15.60;99.90;;;;;;5061733;28;20183;-83
2022/12/31 03:03:26;;;;;;;5.83;1.03;;;15.50;99.90;;;;;;5077713;28;20208;-85
2022/12/31 03:05:53;;;;;;;4.10;0.80;;;15.50;99.90;;;;;;5063390;28;20177;-84
2022/12/31 03:08:25;;;;;;;2.73;0.73;;;15.50;99.90;;;;;;5065246;28;20184;-83
2022/12/31 03:10:55;;;;;;;3.63;0.90;;;15.60;99.90;;;;;;5063715;28;20181;-84
2022/12/31 03:13:23;;;;;;;2.40;0.87;;;15.60;99.90;;;;;;5080758;28;20216;-82
2022/12/31 03:15:49;;;;;;;2.70;0.90;;;15.70;99.90;;;;;;5079154;28;20211;-83
2022/12/31 03:18:17;;;;;;;3.77;0.97;;;15.60;99.90;;;;;;5060748;28;20180;-83
2022/12/31 03:23:31;;;;;;;5.03;1.37;;;15.70;99.90;;;;;;5079084;28;20303;-81
2022/12/31 03:25:59;;;;;;;2.47;0.70;;;15.70;99.90;;;;;;5063206;28;20183;-82
2022/12/31 03:28:29;;;;;;;3.53;1.27;;;15.70;99.90;;;;;;5063678;28;20237;-82
2022/12/31 03:31:00;;;;;;;2.63;0.77;;;15.80;99.90;;;;;;5062808;28;20177;-83
2022/12/31 03:33:32;;;;;;;2.97;1.07;;;15.80;99.90;;;;;;5060914;28;20184;-85
2022/12/31 03:36:01;;;;;;;2.77;0.77;;;15.90;99.90;;;;;;5062425;28;20188;-88
2022/12/31 03:38:31;;;;;;;3.03;0.90;;;15.90;99.90;;;;;;5064547;28;20216;-88
2022/12/31 03:40:57;;;;;;;1.33;0.90;;;15.90;99.90;;;;;;5059116;28;20212;-88
2022/12/31 03:43:23;;;;;;;3.33;0.77;;;16.00;99.90;;;;;;5071778;28;20224;-85
2022/12/31 03:45:50;;;;;;;3.63;0.90;;;15.90;99.90;;;;;;5081345;28;20169;-89
2022/12/31 03:48:16;;;;;;;1.93;0.80;;;15.90;99.90;;;;;;5066207;28;20177;-85
2022/12/31 03:50:42;;;;;;;2.27;0.70;;;16.00;99.90;;;;;;5046677;28;20246;-83
2022/12/31 03:53:10;;;;;;;1.67;0.63;;;16.10;99.90;;;;;;5079619;28;20241;-84
2022/12/31 03:55:35;;;;;;;3.37;1.00;;;16.10;99.90;;;;;;5079613;28;20181;-83
2022/12/31 03:58:03;;;;;;;2.23;0.60;;;16.10;99.90;;;;;;5063441;28;20208;-88
2022/12/31 04:00:29;;;;;;;4.17;0.80;;;16.20;99.90;;;;;;5077951;28;20186;-84
2022/12/31 04:02:55;;;;;;;1.80;0.70;;;16.40;99.90;;;;;;5061723;28;20215;-82
2022/12/31 04:05:23;;;;;;;1.33;0.60;;;16.30;99.90;;;;;;5080743;28;20176;-83
2022/12/31 04:07:50;;;;;;;1.73;0.50;;;16.30;99.90;;;;;;5074278;28;20184;-82
2022/12/31 04:10:18;;;;;;;4.17;0.80;;;16.40;99.90;;;;;;5083425;28;20196;-82
2022/12/31 04:12:44;;;;;;;1.40;0.67;;;16.40;99.90;;;;;;5104141;28;20288;-82
2022/12/31 04:15:16;;;;;;;2.43;0.60;;;16.50;99.90;;;;;;5104422;28;20220;-83
2022/12/31 04:17:42;;;;;;;1.90;0.50;;;16.50;99.90;;;;;;5109526;28;20188;-81
2022/12/31 04:20:10;;;;;;;1.27;0.50;;;16.50;99.90;;;;;;5105359;28;20216;-87
2022/12/31 04:22:36;;;;;;;2.93;0.70;;;16.50;99.90;;;;;;5084321;28;20867;-86
2022/12/31 04:25:04;;;;;;;3.77;0.80;;;16.60;99.90;;;;;;5102355;28;20182;-85
2022/12/31 04:27:30;;;;;;;2.87;0.70;;;16.60;99.90;;;;;;5083448;28;20192;-84
2022/12/31 04:29:58;;;;;;;1.33;0.60;;;16.50;99.90;;;;;;5101408;28;20172;-83
2022/12/31 04:32:26;;;;;;;1.63;0.70;;;16.40;99.90;;;;;;5119484;28;20639;-81
2022/12/31 04:34:52;;;;;;;1.23;0.50;;;16.30;99.90;;;;;;5089093;28;20270;-85
2022/12/31 04:37:19;;;;;;;1.00;0.47;;;16.20;99.90;;;;;;5116284;28;20206;-82
2022/12/31 04:39:45;;;;;;;1.93;0.57;;;16.10;99.90;;;;;;5109160;28;20555;-85
2022/12/31 04:42:11;;;;;;;2.87;0.70;;;16.00;99.90;;;;;;5103261;28;20643;-84
2022/12/31 04:44:37;;;;;;;2.17;0.73;;;15.90;99.90;;;;;;5083823;28;20198;-87
2022/12/31 04:47:05;;;;;;;1.10;0.63;;;16.00;99.90;;;;;;5099603;28;20175;-85
2022/12/31 04:49:31;;;;;;;2.77;0.60;;;15.90;99.90;;;;;;5099101;28;20182;-83
2022/12/31 04:51:58;;;;;;;3.30;0.63;;;16.10;99.90;;;;;;5100467;28;20205;-82
2022/12/31 04:54:32;;;;;;;2.37;0.80;;;16.10;99.90;;;;;;5100737;28;20247;-84
2022/12/31 04:56:59;;;;;;;2.40;0.80;;;16.20;99.90;;;;;;5104712;28;20154;-85
2022/12/31 04:59:27;;;;;;;2.33;0.90;;;16.30;99.90;;;;;;5112186;28;20198;-83
2022/12/31 05:01:53;;;;;;;1.97;0.70;;;16.30;99.90;;;;;;5088941;28;20176;-83
2022/12/31 05:04:19;;;;;;;2.10;0.87;;;16.30;99.90;;;;;;5114399;28;20220;-82
2022/12/31 05:06:48;;;;;;;2.63;0.80;;;16.50;99.90;;;;;;5114690;28;20183;-84
2022/12/31 05:09:16;;;;;;;2.03;0.80;;;16.50;99.90;;;;;;5100704;28;20678;-83
2022/12/31 05:11:42;;;;;;;3.73;0.80;;;16.50;99.90;;;;;;5083223;28;20556;-82
2022/12/31 05:14:07;;;;;;;2.37;0.67;;;16.60;99.90;;;;;;5080610;28;20186;-82
2022/12/31 05:16:38;;;;;;;2.70;0.70;;;16.50;99.90;;;;;;5100337;28;20293;-81
2022/12/31 05:19:08;;;;;;;3.40;0.90;;;16.50;99.90;;;;;;5068603;28;20190;-82
2022/12/31 05:21:34;;;;;;;3.17;0.60;;;16.60;99.90;;;;;;5066639;28;20181;-82
2022/12/31 05:24:02;;;;;;;2.17;0.60;;;16.60;98.90;;;;;;5099267;28;20226;-81
2022/12/31 05:26:32;;;;;;;2.77;0.70;;;16.70;97.90;;;;;;5104322;28;20186;-82
2022/12/31 05:28:59;;;;;;;2.60;0.80;;;16.80;97.20;;;;;;5107887;28;20194;-82
2022/12/31 05:31:26;;;;;;;1.57;0.60;;;16.80;96.60;;;;;;5104320;28;20235;-83
2022/12/31 05:33:52;;;;;;;1.93;0.60;;;16.80;96.50;;;;;;5096998;28;20676;-83
2022/12/31 05:36:18;;;;;;;3.47;1.00;;;16.90;96.40;;;;;;5101357;28;20628;-84
2022/12/31 05:38:44;;;;;;;1.83;0.50;;;16.90;96.60;;;;;;5097232;28;20191;-81
2022/12/31 05:41:10;;;;;;;2.27;0.70;;;16.80;97.70;;;;;;5096592;28;20214;-81
2022/12/31 05:43:36;;;;;;;2.90;0.93;;;16.80;97.10;;;;;;5115663;28;20360;-82
2022/12/31 05:46:03;;;;;;;3.63;0.93;;;16.90;96.90;;;;;;5104613;28;20173;-82
2022/12/31 05:48:31;;;;;;;3.27;1.20;;;16.90;96.00;;;;;;5100638;28;20673;-84
2022/12/31 05:50:57;;;;;;;3.00;1.10;;;16.80;95.70;;;;;;5082236;28;20217;-83
2022/12/31 05:53:23;;;;;;;1.83;0.77;;;16.90;94.90;;;;;;5101558;28;20645;-80
2022/12/31 05:55:49;;;;;;;5.57;1.00;;;16.90;94.70;;;;;;5094697;28;20176;-83
2022/12/31 05:58:15;;;;;;;2.27;0.83;;;16.90;94.30;;;;;;5095687;28;20227;-83
2022/12/31 06:00:44;;;;;;;4.53;1.03;;;17.00;93.90;;;;;;5079234;28;20183;-85
2022/12/31 06:03:10;;;;;;;4.20;1.00;;;17.00;94.00;;;;;;5099426;28;20750;-83
2022/12/31 06:05:42;;;;;;;2.47;0.80;;;17.00;93.50;;;;;;5099314;28;20242;-84
2022/12/31 06:08:08;;;;;;;3.00;0.90;;;17.00;93.80;;;;;;5096638;28;20173;-83
2022/12/31 06:10:42;;;;;;;3.30;0.80;;;17.00;93.40;;;;;;5101227;28;20243;-83
2022/12/31 06:13:13;;;;;;;2.53;0.70;;;17.10;92.60;;;;;;5099041;28;20197;-83
2022/12/31 06:15:39;;;;;;;4.73;1.17;;;17.00;93.50;;;;;;5098078;28;20173;-82
2022/12/31 06:18:05;;;;;;;3.47;0.90;;;17.00;93.70;;;;;;5104337;28;20168;-82
2022/12/31 06:20:31;;;;;;;4.10;1.07;;;17.00;92.70;;;;;;5111989;28;20200;-84
2022/12/31 06:22:58;;;;;;;3.07;0.90;;;17.00;92.70;;;;;;5105009;28;20208;-84
2022/12/31 06:25:24;;;;;;;3.20;0.90;;;17.00;92.80;;;;;;5101121;28;20212;-83
2022/12/31 06:27:50;;;;;;;2.33;0.90;;;17.00;91.80;;;;;;5103639;28;20986;-85
2022/12/31 06:30:16;;;;;;;2.60;0.97;;;17.00;91.80;;;;;;5102236;28;20193;-83
2022/12/31 06:32:53;;;;;;;4.53;1.17;;;17.00;92.10;;;;;;5091588;28;20181;-82
2022/12/31 06:35:21;;;;;;;4.90;1.10;;;17.00;91.90;;;;;;5109830;28;20188;-85
2022/12/31 06:37:48;;;;;;;4.17;0.90;;;17.00;91.90;;;;;;5085074;28;20196;-81
2022/12/31 06:40:17;;;;;;;2.43;0.70;;;17.00;91.20;;;;;;5101698;28;20191;-84
2022/12/31 06:42:43;;;;;;;4.63;1.10;;;17.10;91.10;;;;;;5102266;28;20223;-83
2022/12/31 06:45:09;;;;;;;4.20;1.30;;;17.00;91.00;;;;;;5084129;28;20184;-82
2022/12/31 06:47:36;;;;;;;2.47;0.77;;;17.00;90.80;;;;;;5081360;28;20200;-85
2022/12/31 06:50:02;;;;;;;3.43;0.97;;;17.00;90.90;;;;;;5098683;28;20211;-82
2022/12/31 06:52:28;;;;;;;1.90;0.90;;;16.90;91.20;;;;;;5106543;28;20184;-84
2022/12/31 06:54:56;;;;;;;3.80;1.10;;;16.90;92.10;;;;;;5106296;28;20180;-82
2022/12/31 06:57:23;;;;;;;3.03;0.90;;;17.00;91.80;;;;;;5103530;28;20172;-86
2022/12/31 06:59:53;;;;;;;4.10;1.00;;;17.00;91.30;;;;;;5098841;28;20186;-83
2022/12/31 07:02:52;;;;;;;3.77;1.00;;;16.90;94.00;;;;;;5099321;28;20177;-83
2022/12/31 07:05:40;;;;;;;3.67;1.10;;;16.70;98.30;;;;;;5103470;28;20190;-84
2022/12/31 07:08:48;;;;;;;3.27;1.17;;;16.60;99.90;;;;;;5102098;28;20225;-83
2022/12/31 07:11:35;;;;;;;3.53;0.97;;;16.40;99.90;;;;;;5039783;28;20189;-82
2022/12/31 07:14:31;;;;;;;7.63;1.27;;;16.30;99.90;;;;;;5024150;28;20221;-82
2022/12/31 07:17:37;;;;;;;3.20;1.23;;;16.20;99.90;;;;;;5070739;28;20179;-84
2022/12/31 07:20:13;;;;;;;2.63;1.00;;;16.10;99.90;;;;;;5061714;28;20175;-82
2022/12/31 07:22:40;;;;;;;4.30;1.30;;;16.10;99.90;;;;;;5100982;28;20249;-82
2022/12/31 07:25:16;;;;;;;2.50;0.90;;;16.10;99.90;;;;;;5106002;28;20180;-83
2022/12/31 07:28:02;;;;;;;2.70;1.10;;;16.00;99.90;;;;;;5104164;28;20175;-82
2022/12/31 07:30:41;;;;;;;3.30;0.97;;;16.00;99.90;;;;;;5101476;28;20251;-83
2022/12/31 07:33:36;;;;;;;3.20;0.83;;;16.00;99.90;;;;;;5086706;28;20171;-81
2022/12/31 07:36:22;;;;;;;2.23;0.80;;;16.10;99.90;;;;;;5089762;28;20526;-83
2022/12/31 07:39:14;;;;;;;3.03;1.00;;;16.10;99.90;;;;;;5105747;28;20198;-83
2022/12/31 07:42:23;;;;;;;2.50;1.17;;;16.10;99.90;;;;;;5108497;28;20167;-82
2022/12/31 07:45:02;;;;;;;2.67;1.10;;;16.30;99.90;;;;;;5109533;28;20199;-83
2022/12/31 07:47:38;;;;;;;3.33;1.07;;;16.50;99.80;;;;;;5112490;28;20678;-83
2022/12/31 07:50:14;;;;;;;4.90;1.47;;;16.50;99.50;;;;;;5108624;28;20199;-83
2022/12/31 07:52:46;;;;;;;2.53;0.80;;;16.40;99.90;;;;;;5114038;28;20256;-82
2022/12/31 07:55:13;;;;;;;3.70;1.00;;;16.20;99.90;;;;;;5100281;28;20194;-82
2022/12/31 07:58:01;;;;;;;3.17;0.80;;;16.20;99.90;;;;;;5115528;28;20184;-82
2022/12/31 08:00:32;;;;;;;3.80;1.30;;;16.20;99.90;;;;;;5112192;28;20206;-84
2022/12/31 08:03:10;;;;;;;2.73;1.00;;;16.30;99.90;;;;;;5107520;28;20687;-83
2022/12/31 08:06:02;;;;;;;2.87;0.93;;;16.40;99.90;;;;;;5108501;28;20242;-82
2022/12/31 08:09:09;;;;;;;2.70;0.83;;;16.50;99.90;;;;;;5107689;28;20179;-83
2022/12/31 08:12:00;;;;;;;4.07;1.23;;;16.40;99.90;;;;;;5106352;28;20210;-85
2022/12/31 08:14:28;;;;;;;3.60;1.23;;;16.40;99.90;;;;;;5102844;28;20191;-83
2022/12/31 08:16:55;;;;;;;2.97;1.13;;;16.40;99.90;;;;;;5102990;28;20183;-81
2022/12/31 08:19:32;;;;;;;3.53;1.10;;;16.50;99.90;;;;;;5104768;28;20247;-83
2022/12/31 08:22:24;;;;;;;4.70;1.10;;;16.60;99.10;;;;;;5113650;28;20184;-83
2022/12/31 08:25:12;;;;;;;4.10;1.00;;;16.50;99.70;;;;;;5112833;28;20163;-82
2022/12/31 08:28:01;;;;;;;6.40;1.53;;;16.70;98.40;;;;;;5109073;28;20192;-84
2022/12/31 08:31:00;;;;;;;4.60;1.50;;;16.60;98.20;;;;;;5103346;28;20186;-82
2022/12/31 08:33:46;;;;;;;4.73;1.10;;;16.60;98.70;;;;;;5087944;28;20175;-84
2022/12/31 08:36:25;;;;;;;5.60;1.03;;;16.70;96.70;;;;;;5104904;28;20210;-81
2022/12/31 08:39:26;;;;;;;2.57;1.13;;;16.70;95.80;;;;;;5105038;28;20181;-81
2022/12/31 08:41:55;;;;;;;3.10;1.13;;;16.80;93.90;;;;;;5099000;28;20179;-83
2022/12/31 08:44:52;;;;;;;3.00;1.43;;;16.80;92.80;;;;;;5101296;28;20262;-85
2022/12/31 08:47:29;;;;;;;5.07;1.33;;;16.90;92.80;;;;;;5100159;28;20175;-84
2022/12/31 08:49:57;;;;;;;3.50;1.37;;;16.90;92.80;;;;;;5101221;28;20201;-82
2022/12/31 08:52:27;;;;;;;3.90;1.17;;;16.90;92.10;;;;;;5097711;28;20486;-84
2022/12/31 08:54:57;;;;;;;5.23;1.40;;;17.00;90.30;;;;;;5106046;28;20183;-83
2022/12/31 08:57:57;;;;;;;4.67;1.80;;;17.10;89.50;;;;;;5088757;28;20181;-83
2022/12/31 09:00:25;;;;;;;5.43;1.60;;;17.10;90.00;;;;;;5077026;28;20222;-83
2022/12/31 09:02:59;;;;;;;4.90;1.80;;;17.00;90.20;;;;;;5084218;28;20224;-84
2022/12/31 09:05:45;;;;;;;3.50;1.30;;;17.00;90.60;;;;;;5103463;28;20181;-83
2022/12/31 09:08:27;;;;;;;7.30;1.33;;;17.00;91.80;;;;;;5099691;28;20184;-86
2022/12/31 09:11:42;;;;;;;5.10;1.40;;;16.90;92.10;;;;;;5100213;28;20182;-81
2022/12/31 09:14:34;;;;;;;6.27;1.33;;;16.80;93.30;;;;;;5073097;28;20185;-81
2022/12/31 09:17:19;;;;;;;6.40;1.63;;;16.90;91.80;;;;;;5102059;28;20174;-82
2022/12/31 09:19:45;;;;;;;4.37;1.40;;;17.00;90.50;;;;;;5100440;28;20230;-82
2022/12/31 09:22:11;;;;;;;4.80;1.40;;;17.00;89.30;;;;;;5100954;28;20233;-83
2022/12/31 09:24:36;;;;;;;6.17;1.63;;;17.10;88.30;;;;;;5100257;28;20219;-83
2022/12/31 09:27:38;;;;;;;4.17;1.47;;;17.10;88.40;;;;;;5104137;28;20255;-84
2022/12/31 09:30:07;;;;;;;4.10;1.63;;;17.00;87.80;;;;;;5101012;28;20175;-82
2022/12/31 09:32:59;;;;;;;5.10;1.80;;;16.90;90.20;;;;;;5100620;28;20183;-82
2022/12/31 09:35:52;;;;;;;5.40;1.50;;;16.90;90.90;;;;;;5101028;28;20184;-84
2022/12/31 09:38:51;;;;;;;5.90;1.63;;;16.90;91.10;;;;;;5093629;28;20212;-84
2022/12/31 09:41:35;;;;;;;6.20;1.90;;;16.90;92.80;;;;;;5103202;28;20207;-82
2022/12/31 09:44:28;;;;;;;5.73;1.60;;;16.70;97.50;;;;;;5098842;28;20254;-83
2022/12/31 09:47:14;;;;;;;6.27;1.87;;;16.60;99.20;;;;;;5102932;28;20269;-82
2022/12/31 09:50:09;;;;;;;5.70;1.60;;;16.50;99.20;;;;;;5099980;28;20179;-84
2022/12/31 09:53:07;;;;;;;6.40;1.40;;;16.60;97.50;;;;;;5109870;28;20586;-83
2022/12/31 09:55:41;;;;;;;5.03;1.70;;;16.60;95.90;;;;;;5083870;28;20574;-82
2022/12/31 09:58:13;;;;;;;5.90;1.60;;;16.70;95.30;;;;;;5105978;28;20599;-82
2022/12/31 10:01:02;;;;;;;5.30;1.97;;;16.80;93.80;;;;;;5108827;28;20176;-81
2022/12/31 10:03:43;;;;;;;4.73;1.90;;;16.80;92.30;;;;;;5098653;28;20214;-83
2022/12/31 10:06:25;;;;;;;5.13;1.67;;;16.90;89.70;;;;;;5088268;28;20187;-84
2022/12/31 10:09:28;;;;;;;6.70;1.90;;;17.00;86.80;;;;;;5099633;28;20164;-83
2022/12/31 10:12:11;;;;;;;6.00;2.00;;;17.00;84.80;;;;;;5082718;28;20197;-83
2022/12/31 10:15:03;;;;;;;5.23;1.43;;;17.10;82.50;;;;;;5086597;28;20189;-82
2022/12/31 10:17:50;;;;;;;6.80;1.93;;;17.20;81.20;;;;;;5060053;28;20180;-82
2022/12/31 10:20:29;;;;;;;5.60;2.10;;;17.10;81.50;;;;;;5093311;28;20185;-83
2022/12/31 10:23:42;;;;;;;6.13;1.83;;;17.10;81.00;;;;;;5109518;28;20213;-81
2022/12/31 10:26:40;;;;;;;4.90;1.40;;;17.10;80.50;;;;;;5093540;28;20244;-81
2022/12/31 10:29:33;;;;;;;6.47;2.20;;;17.20;78.10;;;;;;5087565;28;20201;-85
2022/12/31 10:32:19;;;;;;;6.33;1.70;;;17.20;78.50;;;;;;5085384;28;20264;-84
2022/12/31 10:34:55;;;;;;;6.03;2.20;;;17.20;78.40;;;;;;5087339;28;20668;-83
2022/12/31 10:37:28;;;;;;;5.17;1.53;;;17.10;81.50;;;;;;5085500;28;20178;-84
2022/12/31 10:40:32;;;;;;;4.63;1.97;;;17.10;80.20;;;;;;5091401;28;20264;-80
2022/12/31 10:43:39;;;;;;;8.50;2.27;;;17.10;79.00;;;;;;5111394;28;20226;-84
2022/12/31 10:47:03;;;;;;;6.87;1.90;;;17.00;81.00;;;;;;5065724;28;20604;-85
2022/12/31 10:50:06;;;;;;;6.70;2.30;;;17.00;81.70;;;;;;5009286;28;20184;-87
2022/12/31 10:53:14;;;;;;;6.43;2.17;;;17.00;82.30;;;;;;5068034;28;20192;-87
2022/12/31 10:56:16;;;;;;;7.10;2.10;;;17.00;81.40;;;;;;5012047;28;20201;-85
2022/12/31 10:59:16;;;;;;;8.33;1.90;;;17.00;82.30;;;;;;5069898;28;20174;-86
2022/12/31 11:02:08;;;;;;;3.57;1.40;;;17.00;83.70;;;;;;5060369;28;20213;-83
2022/12/31 11:04:52;;;;;;;5.73;1.67;;;17.00;82.10;;;;;;5092150;28;20271;-84
2022/12/31 11:07:37;;;;;;;8.23;1.83;;;17.10;81.00;;;;;;5097041;28;20175;-83
2022/12/31 11:10:27;;;;;;;4.70;1.53;;;17.10;81.50;;;;;;5113755;28;20211;-83
2022/12/31 11:13:23;;;;;;;6.50;1.77;;;17.20;83.40;;;;;;5112734;28;20184;-84
2022/12/31 11:15:55;;;;;;;8.23;1.93;;;17.00;89.30;;;;;;5080562;28;20224;-84
2022/12/31 11:18:50;;;;;;;7.40;1.90;;;17.00;91.10;;;;;;5092038;28;20243;-86
2022/12/31 11:21:59;;;;;;;5.33;1.90;;;16.80;93.30;;;;;;5080938;28;20176;-84
2022/12/31 11:24:59;;;;;;;4.80;1.77;;;16.80;94.70;;;;;;5080593;28;20244;-84
2022/12/31 11:27:56;;;;;;;6.03;2.03;;;16.70;96.20;;;;;;5085374;28;20216;-84
2022/12/31 11:30:40;;;;;;;7.00;2.17;;;16.60;97.00;;;;;;5090467;28;20199;-86
2022/12/31 11:33:33;;;;;;;6.20;2.20;;;16.70;96.90;;;;;;5090417;28;20242;-86
2022/12/31 11:39:22;;;;;;;8.80;2.20;;;16.60;97.50;;;;;;5086760;28;20170;-85
2022/12/31 11:41:56;;;;;;;7.53;2.37;;;16.70;96.90;;;;;;5083795;28;20226;-85
2022/12/31 11:44:31;;;;;;;7.70;2.27;;;16.60;96.30;;;;;;5086012;28;20245;-86
2022/12/31 11:47:13;;;;;;;9.93;2.13;;;16.60;96.00;;;;;;5098332;28;20211;-85
2022/12/31 11:50:17;;;;;;;6.83;2.10;;;16.60;95.60;;;;;;5067931;28;20181;-84
2022/12/31 11:52:58;;;;;;;7.93;1.83;;;16.60;95.20;;;;;;5085904;28;20181;-91
2022/12/31 11:55:55;;;;;;;7.30;2.27;;;16.70;94.60;;;;;;5069138;28;20183;-91
2022/12/31 11:58:27;;;;;;;6.47;2.17;;;16.60;92.80;;;;;;5065239;28;20577;-91
2022/12/31 12:01:22;;;;;;;5.67;1.70;;;16.90;91.20;;;;;;5067473;28;20177;-89
2022/12/31 12:03:48;;;;;;;5.70;1.83;;;16.90;89.20;;;;;;5077871;28;20229;-88
2022/12/31 12:06:26;;;;;;;6.13;2.13;;;16.90;83.90;;;;;;5097955;28;20184;-88
2022/12/31 12:08:55;;;;;;;5.40;1.70;;;17.00;85.50;;;;;;5085398;28;20188;-88
2022/12/31 12:11:30;;;;;;;7.30;2.20;;;17.00;86.40;;;;;;5106462;28;20172;-89
2022/12/31 12:13:56;;;;;;;5.50;1.90;;;17.00;86.20;;;;;;5100898;28;20179;-85
2022/12/31 12:16:24;;;;;;;6.40;1.93;;;17.10;85.20;;;;;;5081674;28;20238;-88
2022/12/31 12:19:15;;;;;;;6.07;1.67;;;17.10;81.90;;;;;;5080447;28;20248;-88
2022/12/31 12:21:48;;;;;;;5.87;1.77;;;17.00;81.40;;;;;;5073996;28;20271;-88
2022/12/31 12:24:37;;;;;;;6.80;2.20;;;17.00;78.70;;;;;;5084294;28;20214;-85
2022/12/31 12:27:20;;;;;;;7.80;2.17;;;17.10;81.30;;;;;;5082791;28;20183;-89
2022/12/31 12:35:31;;;;;;;8.47;2.67;;;16.90;79.90;;;;;;5099059;28;20227;-84
2022/12/31 12:44:08;;;;;;;6.90;2.23;;;16.70;81.90;;;;;;5024231;23;20271;-89
2022/12/31 12:46:37;;;;;;;6.97;2.40;;;16.60;85.70;;;;;;4980057;28;20200;-90
2022/12/31 12:49:04;;;;;;;7.03;2.10;;;16.60;89.30;;;;;;4977546;28;20185;-90
2022/12/31 12:51:47;;;;;;;6.40;2.57;;;16.50;91.00;;;;;;4980764;28;20186;-92
2022/12/31 12:54:23;;;;;;;8.57;2.30;;;16.40;91.00;;;;;;4980534;28;20192;-90
2022/12/31 12:56:58;;;;;;;5.40;2.23;;;16.50;91.00;;;;;;4978912;28;20553;-91
2022/12/31 12:59:41;;;;;;;9.00;2.50;;;16.40;90.80;;;;;;4981440;28;20190;-87
2022/12/31 13:02:26;;;;;;;6.03;2.17;;;16.60;89.40;;;;;;4996041;28;20184;-91
2022/12/31 13:05:23;;;;;;;9.47;2.43;;;16.50;88.50;;;;;;4994941;28;20218;-89
2022/12/31 13:08:07;;;;;;;5.93;2.10;;;16.40;87.20;;;;;;4989946;28;20199;-89
2022/12/31 13:10:48;;;;;;;7.10;2.50;;;16.50;85.20;;;;;;4983700;28;20228;-90
2022/12/31 13:13:27;;;;;;;7.57;2.80;;;16.50;82.80;;;;;;4999144;28;20226;-88
2022/12/31 13:16:07;;;;;;;8.80;2.63;;;16.50;82.10;;;;;;4981233;28;20190;-91
2022/12/31 13:18:47;;;;;;;6.90;2.40;;;16.50;80.70;;;;;;4978747;28;20188;-88
2022/12/31 13:21:28;;;;;;;5.57;2.00;;;16.60;80.30;;;;;;4977101;28;20223;-86
2022/12/31 13:24:05;;;;;;;7.20;2.40;;;16.50;79.20;;;;;;4977593;28;20239;-87
2022/12/31 13:26:38;;;;;;;8.27;2.43;;;16.60;77.60;;;;;;5006408;28;20183;-85
2022/12/31 13:29:11;;;;;;;6.50;2.67;;;16.60;75.30;;;;;;4990485;28;20603;-88
2022/12/31 13:31:38;;;;;;;7.57;2.27;;;16.60;75.60;;;;;;4979946;28;20180;-89
2022/12/31 13:34:34;;;;;;;7.20;2.10;;;16.60;73.40;;;;;;4978423;28;20183;-87
2022/12/31 13:37:12;;;;;;;4.77;2.13;;;16.60;74.60;;;;;;4977024;28;20304;-88
2022/12/31 13:39:42;;;;;;;8.40;2.40;;;16.50;74.30;;;;;;4981220;28;20197;-87
2022/12/31 13:42:27;;;;;;;5.90;2.43;;;16.60;75.40;;;;;;4995862;28;20636;-87
2022/12/31 13:45:15;;;;;;;5.93;2.03;;;16.50;75.00;;;;;;4981104;28;20223;-88
2022/12/31 13:47:47;;;;;;;7.27;2.30;;;16.50;74.50;;;;;;4990864;28;20182;-85
2022/12/31 13:50:31;;;;;;;8.70;2.70;;;16.50;74.50;;;;;;4984064;28;20173;-89
2022/12/31 13:53:21;;;;;;;5.57;2.00;;;16.50;73.80;;;;;;4979028;28;20181;-88
2022/12/31 13:56:04;;;;;;;8.50;2.60;;;16.50;72.00;;;;;;4977148;28;20645;-84
2022/12/31 13:58:47;;;;;;;7.83;2.50;;;16.60;69.40;;;;;;4977416;28;20180;-91